sensor_id;sensor_type;location;lat;lon;timestamp;P1;durP1;ratioP1;P2;durP2;ratioP2
20181;SDS011;10250;50.756;6.172;2022-09-29T00:01:04;7.53;;;2.20;;
20181;SDS011;10250;50.756;6.172;2022-09-29T00:03:05;7.13;;;1.90;;
20181;SDS011;10250;50.756;6.172;2022-09-29T00:05:06;8.60;;;2.40;;
20181;SDS011;10250;50.756;6.172;2022-09-29T00:07:07;8.97;;;2.27;;
20181;SDS011;10250;50.756;6.172;2022-09-29T00:09:08;6.97;;;2.10;;
20181;SDS011;10250;50.756;6.172;2022-09-29T00:11:09;5.50;;;1.90;;
20181;SDS011;10250;50.756;6.172;2022-09-29T00:13:12;7.10;;;2.20;;
20181;SDS011;10250;50.756;6.172;2022-09-29T00:15:13;6.73;;;2.13;;
20181;SDS011;10250;50.756;6.172;2022-09-29T00:17:14;8.33;;;2.37;;
20181;SDS011;10250;50.756;6.172;2022-09-29T00:19:15;10.57;;;2.60;;
20181;SDS011;10250;50.756;6.172;2022-09-29T00:21:17;8.83;;;2.33;;
20181;SDS011;10250;50.756;6.172;2022-09-29T00:23:22;8.67;;;2.30;;
20181;SDS011;10250;50.756;6.172;2022-09-29T00:25:24;8.27;;;2.20;;
20181;SDS011;10250;50.756;6.172;2022-09-29T00:27:25;7.73;;;2.30;;
20181;SDS011;10250;50.756;6.172;2022-09-29T00:29:25;8.47;;;2.43;;
20181;SDS011;10250;50.756;6.172;2022-09-29T00:31:27;8.73;;;2.60;;
20181;SDS011;10250;50.756;6.172;2022-09-29T00:33:29;8.10;;;2.70;;
20181;SDS011;10250;50.756;6.172;2022-09-29T00:35:30;9.50;;;2.70;;
20181;SDS011;10250;50.756;6.172;2022-09-29T00:37:31;9.27;;;2.43;;
20181;SDS011;10250;50.756;6.172;2022-09-29T00:39:31;9.20;;;2.80;;
20181;SDS011;10250;50.756;6.172;2022-09-29T00:41:33;10.37;;;2.93;;
20181;SDS011;10250;50.756;6.172;2022-09-29T00:45:53;9.27;;;2.67;;
20181;SDS011;10250;50.756;6.172;2022-09-29T00:48:08;8.77;;;2.83;;
20181;SDS011;10250;50.756;6.172;2022-09-29T00:52:22;11.33;;;3.00;;
20181;SDS011;10250;50.756;6.172;2022-09-29T00:54:27;11.27;;;3.07;;
20181;SDS011;10250;50.756;6.172;2022-09-29T00:56:31;8.20;;;2.53;;
20181;SDS011;10250;50.756;6.172;2022-09-29T01:00:41;10.10;;;2.90;;
20181;SDS011;10250;50.756;6.172;2022-09-29T01:02:47;7.63;;;2.43;;
20181;SDS011;10250;50.756;6.172;2022-09-29T01:04:51;7.37;;;2.33;;
20181;SDS011;10250;50.756;6.172;2022-09-29T01:06:55;11.03;;;2.50;;
20181;SDS011;10250;50.756;6.172;2022-09-29T01:09:01;9.30;;;2.90;;
20181;SDS011;10250;50.756;6.172;2022-09-29T01:11:07;8.03;;;2.33;;
20181;SDS011;10250;50.756;6.172;2022-09-29T01:13:10;8.47;;;2.43;;
20181;SDS011;10250;50.756;6.172;2022-09-29T01:15:12;9.07;;;2.67;;
20181;SDS011;10250;50.756;6.172;2022-09-29T01:17:15;9.13;;;2.50;;
20181;SDS011;10250;50.756;6.172;2022-09-29T01:19:18;9.73;;;2.33;;
20181;SDS011;10250;50.756;6.172;2022-09-29T01:21:49;8.33;;;2.60;;
20181;SDS011;10250;50.756;6.172;2022-09-29T01:29:11;10.00;;;2.97;;
20181;SDS011;10250;50.756;6.172;2022-09-29T01:31:37;8.43;;;2.30;;
20181;SDS011;10250;50.756;6.172;2022-09-29T01:40:06;10.20;;;2.37;;
20181;SDS011;10250;50.756;6.172;2022-09-29T01:41:48;8.73;;;2.20;;
20181;SDS011;10250;50.756;6.172;2022-09-29T01:48:20;8.20;;;2.63;;
20181;SDS011;10250;50.756;6.172;2022-09-29T01:50:44;10.83;;;2.90;;
20181;SDS011;10250;50.756;6.172;2022-09-29T01:52:50;9.93;;;2.63;;
20181;SDS011;10250;50.756;6.172;2022-09-29T01:54:58;9.57;;;2.53;;
20181;SDS011;10250;50.756;6.172;2022-09-29T01:57:05;8.83;;;2.50;;
20181;SDS011;10250;50.756;6.172;2022-09-29T01:59:16;8.40;;;2.53;;
20181;SDS011;10250;50.756;6.172;2022-09-29T02:01:27;8.60;;;2.50;;
20181;SDS011;10250;50.756;6.172;2022-09-29T02:03:34;10.43;;;2.70;;
20181;SDS011;10250;50.756;6.172;2022-09-29T02:05:50;10.13;;;2.90;;
20181;SDS011;10250;50.756;6.172;2022-09-29T02:07:56;9.77;;;2.90;;
20181;SDS011;10250;50.756;6.172;2022-09-29T02:10:09;10.63;;;3.20;;
20181;SDS011;10250;50.756;6.172;2022-09-29T02:12:12;8.40;;;2.30;;
20181;SDS011;10250;50.756;6.172;2022-09-29T02:14:21;13.47;;;2.70;;
20181;SDS011;10250;50.756;6.172;2022-09-29T02:16:26;10.90;;;2.80;;
20181;SDS011;10250;50.756;6.172;2022-09-29T02:18:31;10.50;;;2.80;;
20181;SDS011;10250;50.756;6.172;2022-09-29T02:20:37;10.77;;;3.07;;
20181;SDS011;10250;50.756;6.172;2022-09-29T02:22:38;12.17;;;2.57;;
20181;SDS011;10250;50.756;6.172;2022-09-29T02:24:40;8.70;;;2.70;;
20181;SDS011;10250;50.756;6.172;2022-09-29T02:26:41;10.13;;;2.93;;
20181;SDS011;10250;50.756;6.172;2022-09-29T02:28:44;11.40;;;2.90;;
20181;SDS011;10250;50.756;6.172;2022-09-29T02:30:45;9.53;;;2.50;;
20181;SDS011;10250;50.756;6.172;2022-09-29T02:32:48;11.03;;;3.03;;
20181;SDS011;10250;50.756;6.172;2022-09-29T02:34:49;10.97;;;2.97;;
20181;SDS011;10250;50.756;6.172;2022-09-29T02:39:02;9.93;;;2.77;;
20181;SDS011;10250;50.756;6.172;2022-09-29T02:55:18;8.47;;;2.40;;
20181;SDS011;10250;50.756;6.172;2022-09-29T02:57:43;11.03;;;3.07;;
20181;SDS011;10250;50.756;6.172;2022-09-29T03:02:10;13.13;;;3.37;;
20181;SDS011;10250;50.756;6.172;2022-09-29T03:04:10;10.60;;;2.93;;
20181;SDS011;10250;50.756;6.172;2022-09-29T03:06:11;11.57;;;3.13;;
20181;SDS011;10250;50.756;6.172;2022-09-29T03:08:12;11.10;;;3.30;;
20181;SDS011;10250;50.756;6.172;2022-09-29T03:10:14;9.57;;;2.40;;
20181;SDS011;10250;50.756;6.172;2022-09-29T03:12:15;11.43;;;2.63;;
20181;SDS011;10250;50.756;6.172;2022-09-29T03:14:17;12.57;;;2.97;;
20181;SDS011;10250;50.756;6.172;2022-09-29T03:16:17;11.23;;;2.60;;
20181;SDS011;10250;50.756;6.172;2022-09-29T03:18:18;9.53;;;2.63;;
20181;SDS011;10250;50.756;6.172;2022-09-29T03:20:21;9.63;;;2.90;;
20181;SDS011;10250;50.756;6.172;2022-09-29T03:22:22;12.27;;;3.17;;
20181;SDS011;10250;50.756;6.172;2022-09-29T03:24:23;12.17;;;3.07;;
20181;SDS011;10250;50.756;6.172;2022-09-29T03:26:24;10.93;;;2.43;;
20181;SDS011;10250;50.756;6.172;2022-09-29T03:28:24;10.27;;;3.00;;
20181;SDS011;10250;50.756;6.172;2022-09-29T03:30:25;10.47;;;3.17;;
20181;SDS011;10250;50.756;6.172;2022-09-29T03:32:26;9.73;;;2.60;;
20181;SDS011;10250;50.756;6.172;2022-09-29T03:34:27;8.27;;;2.43;;
20181;SDS011;10250;50.756;6.172;2022-09-29T03:36:27;8.97;;;2.80;;
20181;SDS011;10250;50.756;6.172;2022-09-29T03:38:30;7.60;;;2.30;;
20181;SDS011;10250;50.756;6.172;2022-09-29T03:40:31;8.70;;;2.40;;
20181;SDS011;10250;50.756;6.172;2022-09-29T03:42:31;9.70;;;2.50;;
20181;SDS011;10250;50.756;6.172;2022-09-29T03:44:32;9.73;;;3.13;;
20181;SDS011;10250;50.756;6.172;2022-09-29T03:46:32;10.67;;;2.63;;
20181;SDS011;10250;50.756;6.172;2022-09-29T03:48:33;7.63;;;2.20;;
20181;SDS011;10250;50.756;6.172;2022-09-29T03:50:34;9.27;;;2.80;;
20181;SDS011;10250;50.756;6.172;2022-09-29T03:52:35;10.57;;;2.87;;
20181;SDS011;10250;50.756;6.172;2022-09-29T03:54:35;9.43;;;2.53;;
20181;SDS011;10250;50.756;6.172;2022-09-29T03:56:36;9.23;;;2.70;;
20181;SDS011;10250;50.756;6.172;2022-09-29T03:58:37;7.63;;;2.70;;
20181;SDS011;10250;50.756;6.172;2022-09-29T04:00:37;8.03;;;2.40;;
20181;SDS011;10250;50.756;6.172;2022-09-29T04:02:38;7.00;;;2.33;;
20181;SDS011;10250;50.756;6.172;2022-09-29T04:04:39;8.63;;;2.60;;
20181;SDS011;10250;50.756;6.172;2022-09-29T04:06:40;8.97;;;2.57;;
20181;SDS011;10250;50.756;6.172;2022-09-29T04:08:40;11.03;;;3.00;;
20181;SDS011;10250;50.756;6.172;2022-09-29T04:10:41;9.40;;;2.63;;
20181;SDS011;10250;50.756;6.172;2022-09-29T04:12:42;9.90;;;2.73;;
20181;SDS011;10250;50.756;6.172;2022-09-29T04:14:42;8.83;;;2.50;;
20181;SDS011;10250;50.756;6.172;2022-09-29T04:16:43;10.70;;;2.90;;
20181;SDS011;10250;50.756;6.172;2022-09-29T04:18:43;8.47;;;2.47;;
20181;SDS011;10250;50.756;6.172;2022-09-29T04:20:44;8.63;;;2.40;;
20181;SDS011;10250;50.756;6.172;2022-09-29T04:22:44;8.00;;;2.33;;
20181;SDS011;10250;50.756;6.172;2022-09-29T04:24:45;9.53;;;2.80;;
20181;SDS011;10250;50.756;6.172;2022-09-29T04:26:47;9.60;;;2.40;;
20181;SDS011;10250;50.756;6.172;2022-09-29T04:28:47;9.60;;;2.70;;
20181;SDS011;10250;50.756;6.172;2022-09-29T04:30:48;8.53;;;2.53;;
20181;SDS011;10250;50.756;6.172;2022-09-29T04:32:49;9.03;;;2.57;;
20181;SDS011;10250;50.756;6.172;2022-09-29T04:34:49;9.37;;;2.73;;
20181;SDS011;10250;50.756;6.172;2022-09-29T04:36:50;8.83;;;2.37;;
20181;SDS011;10250;50.756;6.172;2022-09-29T04:38:53;9.60;;;2.50;;
20181;SDS011;10250;50.756;6.172;2022-09-29T04:40:53;9.43;;;2.40;;
20181;SDS011;10250;50.756;6.172;2022-09-29T04:42:54;9.93;;;2.40;;
20181;SDS011;10250;50.756;6.172;2022-09-29T04:44:54;9.37;;;2.63;;
20181;SDS011;10250;50.756;6.172;2022-09-29T04:46:55;8.33;;;2.40;;
20181;SDS011;10250;50.756;6.172;2022-09-29T04:48:56;6.30;;;2.10;;
20181;SDS011;10250;50.756;6.172;2022-09-29T04:50:56;9.20;;;2.60;;
20181;SDS011;10250;50.756;6.172;2022-09-29T04:52:57;10.23;;;2.67;;
20181;SDS011;10250;50.756;6.172;2022-09-29T04:54:58;13.90;;;3.10;;
20181;SDS011;10250;50.756;6.172;2022-09-29T04:56:58;10.03;;;2.97;;
20181;SDS011;10250;50.756;6.172;2022-09-29T04:59:00;11.63;;;2.87;;
20181;SDS011;10250;50.756;6.172;2022-09-29T05:01:04;9.97;;;2.60;;
20181;SDS011;10250;50.756;6.172;2022-09-29T05:03:06;10.23;;;2.50;;
20181;SDS011;10250;50.756;6.172;2022-09-29T05:05:07;9.63;;;2.50;;
20181;SDS011;10250;50.756;6.172;2022-09-29T05:07:09;10.27;;;2.90;;
20181;SDS011;10250;50.756;6.172;2022-09-29T05:09:10;9.67;;;2.40;;
20181;SDS011;10250;50.756;6.172;2022-09-29T05:11:11;9.57;;;2.77;;
20181;SDS011;10250;50.756;6.172;2022-09-29T05:13:11;13.27;;;3.23;;
20181;SDS011;10250;50.756;6.172;2022-09-29T05:15:12;8.47;;;2.60;;
20181;SDS011;10250;50.756;6.172;2022-09-29T05:17:16;9.53;;;2.90;;
20181;SDS011;10250;50.756;6.172;2022-09-29T05:19:16;9.27;;;2.90;;
20181;SDS011;10250;50.756;6.172;2022-09-29T05:21:19;11.30;;;2.83;;
20181;SDS011;10250;50.756;6.172;2022-09-29T05:23:20;9.17;;;2.50;;
20181;SDS011;10250;50.756;6.172;2022-09-29T05:25:21;10.03;;;2.73;;
20181;SDS011;10250;50.756;6.172;2022-09-29T05:27:22;10.53;;;2.93;;
20181;SDS011;10250;50.756;6.172;2022-09-29T05:29:22;7.20;;;2.23;;
20181;SDS011;10250;50.756;6.172;2022-09-29T05:31:23;7.63;;;2.20;;
20181;SDS011;10250;50.756;6.172;2022-09-29T05:33:24;10.80;;;2.37;;
20181;SDS011;10250;50.756;6.172;2022-09-29T05:35:24;9.43;;;2.47;;
20181;SDS011;10250;50.756;6.172;2022-09-29T05:37:25;9.17;;;2.43;;
20181;SDS011;10250;50.756;6.172;2022-09-29T05:39:25;9.37;;;2.30;;
20181;SDS011;10250;50.756;6.172;2022-09-29T05:41:26;8.90;;;2.47;;
20181;SDS011;10250;50.756;6.172;2022-09-29T05:43:26;8.30;;;2.63;;
20181;SDS011;10250;50.756;6.172;2022-09-29T05:45:28;10.17;;;2.60;;
20181;SDS011;10250;50.756;6.172;2022-09-29T05:47:28;10.17;;;2.60;;
20181;SDS011;10250;50.756;6.172;2022-09-29T05:49:29;9.37;;;2.43;;
20181;SDS011;10250;50.756;6.172;2022-09-29T05:51:32;8.07;;;2.33;;
20181;SDS011;10250;50.756;6.172;2022-09-29T05:53:33;7.57;;;2.40;;
20181;SDS011;10250;50.756;6.172;2022-09-29T05:55:36;10.00;;;2.70;;
20181;SDS011;10250;50.756;6.172;2022-09-29T05:57:38;8.13;;;2.20;;
20181;SDS011;10250;50.756;6.172;2022-09-29T05:59:38;9.80;;;2.27;;
20181;SDS011;10250;50.756;6.172;2022-09-29T06:01:40;11.33;;;2.93;;
20181;SDS011;10250;50.756;6.172;2022-09-29T06:03:41;9.70;;;2.83;;
20181;SDS011;10250;50.756;6.172;2022-09-29T06:05:41;8.17;;;2.03;;
20181;SDS011;10250;50.756;6.172;2022-09-29T06:07:42;9.97;;;2.53;;
20181;SDS011;10250;50.756;6.172;2022-09-29T06:09:42;11.53;;;2.83;;
20181;SDS011;10250;50.756;6.172;2022-09-29T06:11:43;9.17;;;2.50;;
20181;SDS011;10250;50.756;6.172;2022-09-29T06:13:44;8.30;;;2.13;;
20181;SDS011;10250;50.756;6.172;2022-09-29T06:15:46;11.80;;;2.80;;
20181;SDS011;10250;50.756;6.172;2022-09-29T06:17:53;9.40;;;2.30;;
20181;SDS011;10250;50.756;6.172;2022-09-29T06:19:54;9.57;;;2.50;;
20181;SDS011;10250;50.756;6.172;2022-09-29T06:21:55;10.10;;;2.13;;
20181;SDS011;10250;50.756;6.172;2022-09-29T06:23:56;9.40;;;2.47;;
20181;SDS011;10250;50.756;6.172;2022-09-29T06:25:57;11.67;;;2.43;;
20181;SDS011;10250;50.756;6.172;2022-09-29T06:27:58;7.50;;;2.30;;
20181;SDS011;10250;50.756;6.172;2022-09-29T06:29:59;11.13;;;2.83;;
20181;SDS011;10250;50.756;6.172;2022-09-29T06:32:00;9.77;;;2.27;;
20181;SDS011;10250;50.756;6.172;2022-09-29T06:34:02;9.77;;;2.57;;
20181;SDS011;10250;50.756;6.172;2022-09-29T06:36:46;9.47;;;2.63;;
20181;SDS011;10250;50.756;6.172;2022-09-29T06:38:53;8.57;;;2.50;;
20181;SDS011;10250;50.756;6.172;2022-09-29T06:40:54;9.23;;;2.67;;
20181;SDS011;10250;50.756;6.172;2022-09-29T06:42:54;9.03;;;2.73;;
20181;SDS011;10250;50.756;6.172;2022-09-29T06:44:55;10.77;;;2.97;;
20181;SDS011;10250;50.756;6.172;2022-09-29T06:46:56;9.60;;;2.60;;
20181;SDS011;10250;50.756;6.172;2022-09-29T06:48:57;12.40;;;3.00;;
20181;SDS011;10250;50.756;6.172;2022-09-29T06:50:58;9.87;;;2.77;;
20181;SDS011;10250;50.756;6.172;2022-09-29T06:52:59;9.53;;;2.47;;
20181;SDS011;10250;50.756;6.172;2022-09-29T06:55:00;9.33;;;2.40;;
20181;SDS011;10250;50.756;6.172;2022-09-29T06:57:00;8.13;;;2.13;;
20181;SDS011;10250;50.756;6.172;2022-09-29T06:59:01;8.87;;;2.50;;
20181;SDS011;10250;50.756;6.172;2022-09-29T07:01:02;8.17;;;2.67;;
20181;SDS011;10250;50.756;6.172;2022-09-29T07:03:04;12.83;;;2.60;;
20181;SDS011;10250;50.756;6.172;2022-09-29T07:05:05;11.10;;;2.83;;
20181;SDS011;10250;50.756;6.172;2022-09-29T07:07:06;10.50;;;2.50;;
20181;SDS011;10250;50.756;6.172;2022-09-29T07:09:06;8.57;;;2.57;;
20181;SDS011;10250;50.756;6.172;2022-09-29T07:11:09;9.83;;;2.77;;
20181;SDS011;10250;50.756;6.172;2022-09-29T07:13:10;9.13;;;2.33;;
20181;SDS011;10250;50.756;6.172;2022-09-29T07:15:11;8.87;;;2.57;;
20181;SDS011;10250;50.756;6.172;2022-09-29T07:17:12;10.07;;;2.50;;
20181;SDS011;10250;50.756;6.172;2022-09-29T07:19:14;11.67;;;2.80;;
20181;SDS011;10250;50.756;6.172;2022-09-29T07:21:17;9.33;;;2.60;;
20181;SDS011;10250;50.756;6.172;2022-09-29T07:23:18;7.27;;;2.10;;
20181;SDS011;10250;50.756;6.172;2022-09-29T07:25:19;8.90;;;2.60;;
20181;SDS011;10250;50.756;6.172;2022-09-29T07:27:20;8.83;;;2.10;;
20181;SDS011;10250;50.756;6.172;2022-09-29T07:29:23;9.57;;;2.30;;
20181;SDS011;10250;50.756;6.172;2022-09-29T07:31:23;10.53;;;2.40;;
20181;SDS011;10250;50.756;6.172;2022-09-29T07:33:24;9.73;;;2.70;;
20181;SDS011;10250;50.756;6.172;2022-09-29T07:35:25;8.50;;;2.30;;
20181;SDS011;10250;50.756;6.172;2022-09-29T07:37:26;11.77;;;2.87;;
20181;SDS011;10250;50.756;6.172;2022-09-29T07:39:27;8.47;;;2.57;;
20181;SDS011;10250;50.756;6.172;2022-09-29T07:41:27;9.67;;;2.17;;
20181;SDS011;10250;50.756;6.172;2022-09-29T07:43:28;12.53;;;3.10;;
20181;SDS011;10250;50.756;6.172;2022-09-29T07:45:29;10.00;;;2.57;;
20181;SDS011;10250;50.756;6.172;2022-09-29T07:47:30;7.27;;;2.20;;
20181;SDS011;10250;50.756;6.172;2022-09-29T07:49:30;11.00;;;2.73;;
20181;SDS011;10250;50.756;6.172;2022-09-29T07:51:31;7.23;;;2.33;;
20181;SDS011;10250;50.756;6.172;2022-09-29T07:53:32;7.97;;;2.40;;
20181;SDS011;10250;50.756;6.172;2022-09-29T07:55:33;9.57;;;2.63;;
20181;SDS011;10250;50.756;6.172;2022-09-29T07:57:34;9.07;;;2.43;;
20181;SDS011;10250;50.756;6.172;2022-09-29T07:59:34;9.67;;;2.33;;
20181;SDS011;10250;50.756;6.172;2022-09-29T08:01:35;10.00;;;2.47;;
20181;SDS011;10250;50.756;6.172;2022-09-29T08:03:36;10.53;;;2.83;;
20181;SDS011;10250;50.756;6.172;2022-09-29T08:05:38;8.40;;;2.73;;
20181;SDS011;10250;50.756;6.172;2022-09-29T08:07:40;7.33;;;2.20;;
20181;SDS011;10250;50.756;6.172;2022-09-29T08:09:41;10.00;;;2.43;;
20181;SDS011;10250;50.756;6.172;2022-09-29T08:11:42;11.97;;;2.57;;
20181;SDS011;10250;50.756;6.172;2022-09-29T08:13:43;9.60;;;2.60;;
20181;SDS011;10250;50.756;6.172;2022-09-29T08:15:44;8.93;;;2.50;;
20181;SDS011;10250;50.756;6.172;2022-09-29T08:17:45;10.30;;;3.00;;
20181;SDS011;10250;50.756;6.172;2022-09-29T08:19:45;7.17;;;1.97;;
20181;SDS011;10250;50.756;6.172;2022-09-29T08:21:47;6.63;;;2.07;;
20181;SDS011;10250;50.756;6.172;2022-09-29T08:23:48;7.40;;;2.07;;
20181;SDS011;10250;50.756;6.172;2022-09-29T08:25:49;7.93;;;2.23;;
20181;SDS011;10250;50.756;6.172;2022-09-29T08:27:57;6.80;;;1.80;;
20181;SDS011;10250;50.756;6.172;2022-09-29T08:29:58;5.73;;;1.70;;
20181;SDS011;10250;50.756;6.172;2022-09-29T08:31:59;6.73;;;1.93;;
20181;SDS011;10250;50.756;6.172;2022-09-29T08:34:01;5.20;;;1.73;;
20181;SDS011;10250;50.756;6.172;2022-09-29T08:36:02;6.57;;;1.67;;
20181;SDS011;10250;50.756;6.172;2022-09-29T08:38:05;5.97;;;1.77;;
20181;SDS011;10250;50.756;6.172;2022-09-29T08:40:05;6.03;;;1.67;;
20181;SDS011;10250;50.756;6.172;2022-09-29T08:42:12;5.50;;;1.53;;
20181;SDS011;10250;50.756;6.172;2022-09-29T08:46:44;6.03;;;1.60;;
20181;SDS011;10250;50.756;6.172;2022-09-29T08:48:56;4.20;;;1.30;;
20181;SDS011;10250;50.756;6.172;2022-09-29T08:51:02;6.53;;;1.60;;
20181;SDS011;10250;50.756;6.172;2022-09-29T08:53:07;5.10;;;1.67;;
20181;SDS011;10250;50.756;6.172;2022-09-29T08:57:18;4.87;;;1.33;;
20181;SDS011;10250;50.756;6.172;2022-09-29T08:59:19;5.80;;;1.73;;
20181;SDS011;10250;50.756;6.172;2022-09-29T09:22:19;5.27;;;1.57;;
20181;SDS011;10250;50.756;6.172;2022-09-29T09:24:27;4.23;;;1.33;;
20181;SDS011;10250;50.756;6.172;2022-09-29T09:26:47;8.40;;;2.20;;
20181;SDS011;10250;50.756;6.172;2022-09-29T09:28:48;9.63;;;2.03;;
20181;SDS011;10250;50.756;6.172;2022-09-29T09:30:56;6.73;;;1.77;;
20181;SDS011;10250;50.756;6.172;2022-09-29T09:33:41;5.60;;;1.70;;
20181;SDS011;10250;50.756;6.172;2022-09-29T09:35:53;7.73;;;1.60;;
20181;SDS011;10250;50.756;6.172;2022-09-29T09:38:01;7.20;;;1.83;;
20181;SDS011;10250;50.756;6.172;2022-09-29T09:40:10;5.77;;;1.63;;
20181;SDS011;10250;50.756;6.172;2022-09-29T09:42:20;5.20;;;1.60;;
20181;SDS011;10250;50.756;6.172;2022-09-29T09:44:36;5.97;;;1.70;;
20181;SDS011;10250;50.756;6.172;2022-09-29T09:46:47;6.07;;;1.87;;
20181;SDS011;10250;50.756;6.172;2022-09-29T09:48:56;3.97;;;1.30;;
20181;SDS011;10250;50.756;6.172;2022-09-29T09:51:00;7.67;;;1.60;;
20181;SDS011;10250;50.756;6.172;2022-09-29T09:53:16;5.47;;;1.60;;
20181;SDS011;10250;50.756;6.172;2022-09-29T09:55:30;4.30;;;1.30;;
20181;SDS011;10250;50.756;6.172;2022-09-29T10:00:12;6.20;;;1.60;;
20181;SDS011;10250;50.756;6.172;2022-09-29T10:02:45;7.33;;;1.70;;
20181;SDS011;10250;50.756;6.172;2022-09-29T10:04:54;4.27;;;1.33;;
20181;SDS011;10250;50.756;6.172;2022-09-29T10:06:55;5.47;;;1.40;;
20181;SDS011;10250;50.756;6.172;2022-09-29T10:08:56;3.50;;;1.37;;
20181;SDS011;10250;50.756;6.172;2022-09-29T10:10:57;3.73;;;1.30;;
20181;SDS011;10250;50.756;6.172;2022-09-29T10:13:02;6.37;;;1.67;;
20181;SDS011;10250;50.756;6.172;2022-09-29T10:15:11;3.63;;;1.33;;
20181;SDS011;10250;50.756;6.172;2022-09-29T10:17:20;5.00;;;1.47;;
20181;SDS011;10250;50.756;6.172;2022-09-29T10:19:51;6.40;;;1.60;;
20181;SDS011;10250;50.756;6.172;2022-09-29T10:22:10;4.87;;;1.43;;
20181;SDS011;10250;50.756;6.172;2022-09-29T10:24:23;4.83;;;1.40;;
20181;SDS011;10250;50.756;6.172;2022-09-29T10:26:32;6.23;;;1.57;;
20181;SDS011;10250;50.756;6.172;2022-09-29T10:28:40;6.43;;;1.43;;
20181;SDS011;10250;50.756;6.172;2022-09-29T10:30:44;5.43;;;1.43;;
20181;SDS011;10250;50.756;6.172;2022-09-29T10:32:45;7.03;;;1.70;;
20181;SDS011;10250;50.756;6.172;2022-09-29T10:34:48;5.13;;;1.37;;
20181;SDS011;10250;50.756;6.172;2022-09-29T10:36:52;2.97;;;1.23;;
20181;SDS011;10250;50.756;6.172;2022-09-29T10:39:03;4.57;;;1.33;;
20181;SDS011;10250;50.756;6.172;2022-09-29T10:41:05;3.70;;;1.33;;
20181;SDS011;10250;50.756;6.172;2022-09-29T10:43:21;8.10;;;1.63;;
20181;SDS011;10250;50.756;6.172;2022-09-29T10:45:31;4.83;;;1.40;;
20181;SDS011;10250;50.756;6.172;2022-09-29T10:47:48;5.33;;;1.50;;
20181;SDS011;10250;50.756;6.172;2022-09-29T10:52:24;4.40;;;1.20;;
20181;SDS011;10250;50.756;6.172;2022-09-29T10:54:28;5.37;;;1.27;;
20181;SDS011;10250;50.756;6.172;2022-09-29T10:56:32;5.13;;;1.13;;
20181;SDS011;10250;50.756;6.172;2022-09-29T10:58:36;6.13;;;1.13;;
20181;SDS011;10250;50.756;6.172;2022-09-29T11:00:39;3.97;;;1.23;;
20181;SDS011;10250;50.756;6.172;2022-09-29T11:02:47;4.90;;;1.20;;
20181;SDS011;10250;50.756;6.172;2022-09-29T11:04:48;5.03;;;1.30;;
20181;SDS011;10250;50.756;6.172;2022-09-29T11:06:50;4.77;;;1.33;;
20181;SDS011;10250;50.756;6.172;2022-09-29T11:15:28;3.47;;;1.13;;
20181;SDS011;10250;50.756;6.172;2022-09-29T11:17:38;2.03;;;0.90;;
20181;SDS011;10250;50.756;6.172;2022-09-29T11:19:47;4.93;;;1.03;;
20181;SDS011;10250;50.756;6.172;2022-09-29T11:26:23;1.83;;;0.80;;
20181;SDS011;10250;50.756;6.172;2022-09-29T11:28:50;2.27;;;0.70;;
20181;SDS011;10250;50.756;6.172;2022-09-29T11:35:53;4.17;;;1.20;;
20181;SDS011;10250;50.756;6.172;2022-09-29T11:41:19;3.07;;;1.13;;
20181;SDS011;10250;50.756;6.172;2022-09-29T11:43:05;4.10;;;0.93;;
20181;SDS011;10250;50.756;6.172;2022-09-29T11:45:10;4.07;;;1.13;;
20181;SDS011;10250;50.756;6.172;2022-09-29T12:01:29;2.23;;;0.93;;
20181;SDS011;10250;50.756;6.172;2022-09-29T12:04:00;3.07;;;1.03;;
20181;SDS011;10250;50.756;6.172;2022-09-29T12:08:28;3.03;;;0.90;;
20181;SDS011;10250;50.756;6.172;2022-09-29T12:10:53;3.60;;;0.97;;
20181;SDS011;10250;50.756;6.172;2022-09-29T12:15:11;4.03;;;1.10;;
20181;SDS011;10250;50.756;6.172;2022-09-29T12:17:18;2.70;;;0.90;;
20181;SDS011;10250;50.756;6.172;2022-09-29T12:19:22;2.53;;;1.03;;
20181;SDS011;10250;50.756;6.172;2022-09-29T12:21:32;1.57;;;0.73;;
20181;SDS011;10250;50.756;6.172;2022-09-29T12:23:37;4.20;;;1.10;;
20181;SDS011;10250;50.756;6.172;2022-09-29T12:25:49;2.17;;;0.93;;
20181;SDS011;10250;50.756;6.172;2022-09-29T12:28:01;3.17;;;0.70;;
20181;SDS011;10250;50.756;6.172;2022-09-29T12:30:26;2.53;;;0.90;;
20181;SDS011;10250;50.756;6.172;2022-09-29T12:34:54;5.20;;;1.00;;
20181;SDS011;10250;50.756;6.172;2022-09-29T12:37:09;2.97;;;0.80;;
20181;SDS011;10250;50.756;6.172;2022-09-29T12:41:51;4.27;;;1.10;;
20181;SDS011;10250;50.756;6.172;2022-09-29T12:44:14;4.03;;;1.10;;
20181;SDS011;10250;50.756;6.172;2022-09-29T12:46:26;5.90;;;1.10;;
20181;SDS011;10250;50.756;6.172;2022-09-29T12:50:50;2.93;;;0.90;;
20181;SDS011;10250;50.756;6.172;2022-09-29T12:55:09;1.63;;;0.70;;
20181;SDS011;10250;50.756;6.172;2022-09-29T12:57:31;3.60;;;0.97;;
20181;SDS011;10250;50.756;6.172;2022-09-29T12:59:38;3.37;;;0.90;;
20181;SDS011;10250;50.756;6.172;2022-09-29T13:01:46;4.20;;;0.90;;
20181;SDS011;10250;50.756;6.172;2022-09-29T13:09:07;3.03;;;0.80;;
20181;SDS011;10250;50.756;6.172;2022-09-29T13:21:26;3.57;;;1.10;;
20181;SDS011;10250;50.756;6.172;2022-09-29T13:23:44;2.03;;;1.00;;
20181;SDS011;10250;50.756;6.172;2022-09-29T13:26:14;5.43;;;1.10;;
20181;SDS011;10250;50.756;6.172;2022-09-29T13:28:38;4.77;;;1.20;;
20181;SDS011;10250;50.756;6.172;2022-09-29T13:30:46;3.37;;;1.00;;
20181;SDS011;10250;50.756;6.172;2022-09-29T13:32:49;3.70;;;1.20;;
20181;SDS011;10250;50.756;6.172;2022-09-29T13:34:55;1.83;;;0.77;;
20181;SDS011;10250;50.756;6.172;2022-09-29T13:37:33;3.77;;;1.20;;
20181;SDS011;10250;50.756;6.172;2022-09-29T13:39:27;2.37;;;1.00;;
20181;SDS011;10250;50.756;6.172;2022-09-29T13:43:42;4.13;;;1.10;;
20181;SDS011;10250;50.756;6.172;2022-09-29T13:45:58;5.00;;;1.00;;
20181;SDS011;10250;50.756;6.172;2022-09-29T13:48:33;6.13;;;1.10;;
20181;SDS011;10250;50.756;6.172;2022-09-29T13:52:51;2.70;;;0.90;;
20181;SDS011;10250;50.756;6.172;2022-09-29T13:54:52;4.70;;;1.10;;
20181;SDS011;10250;50.756;6.172;2022-09-29T13:59:12;4.43;;;1.37;;
20181;SDS011;10250;50.756;6.172;2022-09-29T14:01:33;5.97;;;1.40;;
20181;SDS011;10250;50.756;6.172;2022-09-29T14:03:40;5.90;;;1.27;;
20181;SDS011;10250;50.756;6.172;2022-09-29T14:05:45;3.80;;;1.33;;
20181;SDS011;10250;50.756;6.172;2022-09-29T14:07:47;3.13;;;1.30;;
20181;SDS011;10250;50.756;6.172;2022-09-29T14:12:22;5.80;;;1.37;;
20181;SDS011;10250;50.756;6.172;2022-09-29T14:14:28;1.63;;;0.87;;
20181;SDS011;10250;50.756;6.172;2022-09-29T14:16:41;5.10;;;1.50;;
20181;SDS011;10250;50.756;6.172;2022-09-29T14:21:10;5.07;;;1.20;;
20181;SDS011;10250;50.756;6.172;2022-09-29T14:23:13;4.13;;;1.20;;
20181;SDS011;10250;50.756;6.172;2022-09-29T14:32:37;3.70;;;1.30;;
20181;SDS011;10250;50.756;6.172;2022-09-29T14:34:41;4.07;;;1.30;;
20181;SDS011;10250;50.756;6.172;2022-09-29T14:36:43;4.20;;;1.20;;
20181;SDS011;10250;50.756;6.172;2022-09-29T14:38:47;4.97;;;1.40;;
20181;SDS011;10250;50.756;6.172;2022-09-29T14:41:24;4.07;;;1.10;;
20181;SDS011;10250;50.756;6.172;2022-09-29T14:43:24;1.83;;;0.80;;
20181;SDS011;10250;50.756;6.172;2022-09-29T14:46:00;4.30;;;1.50;;
20181;SDS011;10250;50.756;6.172;2022-09-29T14:48:33;5.30;;;1.30;;
20181;SDS011;10250;50.756;6.172;2022-09-29T14:56:21;4.93;;;1.43;;
20181;SDS011;10250;50.756;6.172;2022-09-29T14:58:26;5.20;;;1.20;;
20181;SDS011;10250;50.756;6.172;2022-09-29T15:01:16;2.43;;;1.13;;
20181;SDS011;10250;50.756;6.172;2022-09-29T15:03:28;5.40;;;1.70;;
20181;SDS011;10250;50.756;6.172;2022-09-29T15:05:34;4.60;;;1.40;;
20181;SDS011;10250;50.756;6.172;2022-09-29T15:07:38;3.70;;;1.23;;
20181;SDS011;10250;50.756;6.172;2022-09-29T15:09:43;3.93;;;1.37;;
20181;SDS011;10250;50.756;6.172;2022-09-29T15:11:55;5.40;;;1.40;;